Aviation Digital Data Service (ADDS)

Output produced by METARs form (1018 UTC 23 May 2015)
found at http://aviationweather.gov/adds/metars/
 
KMPV 230520Z 2306/2406 30007KT P6SM BKN060 
     FM230800 30006KT P6SM SCT060 
     FM231200 32012G22KT P6SM SKC 
     FM232000 27008G15KT P6SM SCT120 
     FM240100 21007KT P6SM SCT120